createdAt,value
2023-04-20T05:36:33.635Z,100.00
2023-04-20T05:39:41.180Z,100.00
2023-04-20T05:42:43.961Z,100.00
2023-04-20T05:45:46.754Z,100.00
2023-04-20T05:48:49.535Z,100.00
2023-04-20T05:51:53.648Z,100.00
2023-04-20T05:54:56.486Z,100.00
2023-04-20T05:58:01.798Z,100.00
2023-04-20T06:01:04.640Z,100.00
2023-04-20T06:04:07.550Z,100.00
2023-04-20T06:07:12.601Z,100.00
2023-04-20T06:24:55.329Z,100.00
2023-04-20T06:27:57.821Z,100.00
2023-04-20T06:31:00.343Z,100.00
2023-04-20T06:34:02.912Z,100.00
2023-04-20T06:44:43.209Z,100.00
2023-04-20T06:47:45.855Z,100.00
2023-04-20T06:50:49.051Z,100.00
2023-04-20T06:53:51.671Z,100.00
2023-04-20T06:56:54.222Z,100.00
2023-04-20T06:59:58.943Z,100.00
2023-04-20T07:03:02.869Z,100.00
2023-04-20T07:06:07.658Z,100.00
2023-04-20T07:09:11.295Z,100.00
2023-04-20T07:12:15.816Z,100.00
2023-04-20T07:15:19.823Z,100.00
2023-04-20T07:18:22.357Z,100.00
2023-04-20T07:21:24.896Z,100.00
2023-04-20T07:24:29.029Z,100.00
2023-04-20T07:27:33.588Z,100.00
2023-04-20T07:30:37.728Z,100.00
2023-04-20T07:33:40.594Z,100.00
2023-04-20T07:36:43.102Z,100.00
2023-04-20T07:39:45.600Z,100.00
2023-04-20T07:42:48.108Z,100.00
2023-04-20T07:45:52.523Z,100.00
2023-04-20T07:48:55.077Z,100.00
2023-04-20T07:52:09.261Z,100.00
2023-04-20T07:55:18.022Z,100.00
2023-04-20T07:58:21.613Z,100.00
2023-04-20T08:01:26.300Z,100.00
2023-04-20T08:04:29.256Z,100.00
2023-04-20T08:07:31.921Z,100.00
2023-04-20T08:10:35.160Z,100.00
2023-04-20T08:13:37.779Z,100.00
2023-04-20T08:16:41.672Z,100.00
2023-04-20T08:19:45.990Z,100.00
2023-04-20T08:22:49.343Z,100.00
2023-04-20T08:25:51.844Z,100.00
2023-04-20T08:28:54.327Z,100.00
2023-04-20T08:31:58.435Z,100.00
2023-04-20T08:35:01.046Z,100.00
2023-04-20T08:38:03.770Z,100.00
2023-04-20T08:41:06.632Z,100.00
2023-04-20T08:44:09.542Z,100.00
2023-04-20T08:47:14.017Z,100.00
2023-04-20T08:50:17.769Z,100.00
2023-04-20T08:53:20.642Z,100.00
2023-04-20T08:56:34.739Z,100.00
2023-04-20T08:59:38.082Z,100.00
2023-04-20T09:02:51.842Z,100.00
2023-04-20T09:05:54.430Z,100.00
2023-04-20T09:08:56.959Z,100.00
2023-04-20T09:12:03.856Z,100.00
2023-04-20T09:15:07.428Z,100.00
2023-04-20T09:18:15.754Z,100.00
2023-04-20T09:21:18.250Z,100.00
2023-04-20T09:24:22.189Z,100.00
2023-04-20T09:27:26.223Z,100.00
2023-04-20T09:30:39.034Z,100.00
2023-04-20T09:33:42.975Z,100.00
2023-04-20T09:36:47.388Z,100.00
2023-04-20T09:39:50.481Z,100.00
2023-04-20T09:42:54.539Z,100.00
2023-04-20T09:45:57.540Z,100.00
2023-04-20T09:49:02.586Z,100.00
2023-04-20T09:52:06.282Z,100.00
2023-04-20T09:55:11.580Z,100.00
2023-04-20T09:58:14.592Z,100.00
2023-04-20T10:01:17.217Z,100.00
2023-04-20T10:04:22.142Z,100.00
2023-04-20T10:07:27.335Z,100.00
2023-04-20T10:10:31.081Z,100.00
2023-04-20T10:13:35.203Z,100.00
2023-04-20T10:16:37.835Z,100.00
2023-04-20T10:19:43.435Z,100.00
2023-04-20T10:22:46.396Z,100.00
2023-04-20T10:25:59.728Z,100.00
2023-04-20T10:29:02.350Z,100.00
2023-04-20T10:32:05.203Z,100.00
2023-04-20T10:35:13.932Z,100.00
2023-04-20T10:38:17.123Z,100.00
2023-04-20T10:41:20.968Z,100.00
2023-04-20T10:44:23.553Z,100.00
2023-04-20T10:47:30.986Z,100.00
2023-04-20T10:50:35.106Z,100.00
2023-04-20T10:53:37.589Z,100.00
2023-04-20T10:56:41.849Z,100.00
2023-04-20T10:59:44.369Z,100.00
2023-04-20T11:02:49.176Z,100.00
2023-04-20T11:05:53.047Z,100.00
2023-04-20T11:08:55.711Z,100.00
2023-04-20T11:12:02.801Z,100.00
2023-04-20T11:15:06.266Z,100.00
2023-04-20T11:18:09.453Z,100.00
2023-04-20T11:21:13.391Z,100.00
2023-04-20T11:24:20.126Z,100.00
2023-04-20T11:27:24.761Z,100.00
2023-04-20T11:30:27.275Z,100.00
2023-04-20T11:33:31.365Z,100.00
2023-04-20T11:36:40.524Z,100.00
2023-04-20T11:39:43.115Z,100.00
2023-04-20T11:42:46.331Z,100.00
2023-04-20T11:45:49.285Z,100.00
2023-04-20T11:48:51.848Z,100.00
2023-04-20T11:51:56.159Z,100.00
2023-04-20T11:54:58.701Z,100.00
2023-04-20T11:58:01.222Z,100.00
2023-04-20T12:01:05.373Z,100.00
2023-04-20T12:04:08.643Z,94.73
2023-04-20T12:07:12.764Z,100.00
2023-04-20T12:10:15.234Z,95.39
2023-04-20T12:13:17.812Z,97.89
2023-04-20T12:16:20.344Z,89.68
2023-04-20T12:19:23.296Z,91.13
2023-04-20T12:22:27.464Z,85.49
2023-04-20T12:25:30.058Z,86.05
2023-04-20T12:28:33.107Z,89.23
2023-04-20T12:31:36.373Z,82.21
2023-04-20T12:34:39.134Z,91.60
2023-04-20T12:37:43.029Z,91.15
2023-04-20T12:40:45.622Z,89.25
2023-04-20T12:43:48.121Z,87.25
2023-04-20T12:46:50.752Z,81.75
2023-04-20T12:49:54.103Z,81.21
2023-04-20T12:52:58.512Z,82.21
2023-04-20T12:56:01.614Z,82.06
2023-04-20T12:59:04.439Z,85.73
2023-04-20T13:02:07.381Z,83.33
2023-04-20T13:05:10.974Z,82.43
2023-04-20T13:08:14.865Z,78.49
2023-04-20T13:11:18.010Z,78.26
2023-04-20T13:14:20.795Z,81.21
2023-04-20T13:17:25.884Z,84.04
2023-04-20T13:20:29.820Z,82.00
2023-04-20T13:23:33.763Z,100.00
2023-04-20T13:26:36.697Z,90.52
2023-04-20T13:29:40.042Z,87.32
2023-04-20T13:32:43.000Z,78.80
2023-04-20T13:35:45.560Z,73.19
2023-04-20T13:38:49.893Z,73.33
2023-04-20T13:41:52.396Z,72.31
2023-04-20T13:44:54.957Z,72.09
2023-04-20T13:47:58.166Z,72.68
2023-04-20T13:51:00.733Z,73.85
2023-04-20T13:54:04.706Z,74.62
2023-04-20T13:57:07.214Z,74.99
2023-04-20T14:00:11.007Z,77.66
2023-04-20T14:03:14.285Z,78.87
2023-04-20T14:06:16.960Z,79.72
2023-04-20T14:09:21.376Z,79.49
2023-04-20T14:12:24.175Z,83.51
2023-04-20T14:15:27.228Z,82.61
2023-04-20T14:18:29.711Z,81.85
2023-04-20T14:21:32.860Z,83.01
2023-04-20T14:24:36.689Z,82.98
2023-04-20T14:27:39.203Z,82.99
2023-04-20T14:30:41.921Z,82.00
2023-04-20T14:33:44.823Z,81.39
2023-04-20T14:36:47.341Z,79.98
2023-04-20T14:39:51.258Z,78.12
2023-04-20T14:42:54.040Z,78.51
2023-04-20T14:45:58.684Z,79.68
2023-04-20T14:49:01.373Z,81.79
2023-04-20T14:52:04.248Z,83.18
2023-04-20T14:55:09.254Z,79.65
2023-04-20T14:58:11.823Z,76.44
2023-04-20T15:01:14.757Z,77.73
2023-04-20T15:04:17.567Z,78.00
2023-04-20T15:07:20.360Z,78.41
2023-04-20T15:10:24.542Z,78.84
2023-04-20T15:13:27.194Z,79.85
2023-04-20T15:16:29.877Z,78.27
2023-04-20T15:19:32.477Z,79.37
2023-04-20T15:22:35.216Z,79.76
2023-04-20T15:25:39.192Z,77.20
2023-04-20T15:28:41.760Z,75.29
2023-04-20T15:31:45.571Z,74.31
2023-04-20T15:34:48.177Z,78.67
2023-04-20T15:37:50.750Z,75.89
2023-04-20T15:40:55.420Z,74.92
2023-04-20T15:43:57.931Z,74.49
2023-04-20T15:47:01.739Z,74.20
2023-04-20T15:50:04.510Z,72.89
2023-04-20T15:53:07.338Z,73.35
2023-04-20T15:56:12.013Z,72.59
2023-04-20T15:59:14.528Z,73.57
2023-04-20T16:02:17.349Z,72.51
2023-04-20T16:05:19.935Z,72.39
2023-04-20T16:08:22.493Z,72.33
2023-04-20T16:11:26.390Z,72.16
2023-04-20T16:14:29.013Z,74.92
2023-04-20T16:17:31.624Z,73.98
2023-04-20T16:20:34.170Z,70.99
2023-04-20T16:23:36.695Z,72.37
2023-04-20T16:26:41.309Z,74.50
2023-04-20T16:29:43.874Z,75.88
2023-04-20T16:32:46.654Z,75.69
2023-04-20T16:35:49.215Z,76.76
2023-04-20T16:38:51.676Z,78.40
2023-04-20T16:41:56.928Z,78.05
2023-04-20T16:44:59.514Z,77.68
2023-04-20T16:48:02.412Z,77.14
2023-04-20T16:51:05.202Z,76.80
2023-04-20T16:54:08.094Z,77.01
2023-04-20T16:57:11.910Z,77.62
2023-04-20T17:00:15.569Z,78.13
2023-04-20T17:03:18.240Z,76.24
2023-04-20T17:06:21.239Z,75.84
2023-04-20T17:09:24.105Z,78.48
2023-04-20T17:12:27.933Z,78.67
2023-04-20T17:15:30.446Z,80.66
2023-04-20T17:18:34.262Z,81.79
2023-04-20T17:21:36.804Z,81.20
2023-04-20T17:24:39.310Z,81.36
2023-04-20T17:27:43.283Z,82.19
2023-04-20T17:30:45.960Z,82.76
2023-04-20T17:33:48.509Z,81.37
2023-04-20T17:36:50.961Z,81.57
2023-04-20T17:39:53.492Z,82.50
2023-04-20T17:42:57.303Z,83.28
2023-04-20T17:46:00.766Z,85.25
2023-04-20T17:49:03.299Z,87.12
2023-04-20T17:52:06.269Z,89.09
2023-04-20T17:55:09.552Z,90.67
2023-04-20T17:58:13.832Z,92.87
2023-04-20T18:01:16.629Z,95.52
2023-04-20T18:04:19.442Z,98.49
2023-04-20T18:07:22.194Z,100.00
2023-04-20T18:10:24.696Z,100.00
2023-04-20T18:13:28.860Z,100.00
2023-04-20T18:16:31.350Z,100.00
2023-04-20T18:19:33.820Z,100.00
2023-04-20T18:22:36.649Z,100.00
2023-04-20T18:25:39.206Z,100.00
2023-04-20T18:28:43.073Z,100.00
2023-04-20T18:31:46.480Z,100.00
2023-04-20T18:34:49.122Z,100.00
2023-04-20T18:37:53.617Z,100.00
2023-04-20T18:40:56.210Z,100.00
2023-04-20T18:44:01.285Z,100.00
2023-04-20T18:47:03.897Z,100.00
2023-04-20T18:50:07.599Z,100.00
2023-04-20T18:53:10.154Z,100.00
2023-04-20T18:56:12.709Z,100.00
2023-04-20T18:59:16.517Z,100.00
2023-04-20T19:02:20.242Z,100.00
2023-04-20T19:05:23.327Z,100.00
2023-04-20T19:08:26.207Z,100.00
2023-04-20T19:11:28.950Z,100.00
2023-04-20T19:14:32.752Z,100.00
2023-04-20T19:17:36.047Z,100.00
2023-04-20T19:20:38.853Z,100.00
2023-04-20T19:23:41.761Z,100.00
2023-04-20T19:26:44.302Z,100.00
2023-04-20T19:29:48.131Z,100.00
2023-04-20T19:32:50.610Z,100.00
2023-04-20T19:35:53.568Z,100.00
2023-04-20T19:38:56.303Z,100.00
2023-04-20T19:41:58.821Z,100.00
2023-04-20T19:45:03.714Z,100.00
2023-04-20T19:48:06.719Z,100.00
2023-04-20T19:51:10.461Z,100.00
2023-04-20T19:54:16.528Z,100.00
2023-04-20T19:57:19.044Z,100.00
2023-04-20T20:00:22.987Z,100.00
2023-04-20T20:03:27.347Z,100.00
2023-04-20T20:06:30.105Z,100.00
2023-04-20T20:09:32.585Z,100.00
2023-04-20T20:31:08.964Z,100.00
